sensor_id;sensor_type;location;lat;lon;timestamp;pressure;altitude;pressure_sealevel;temperature;humidity
54144;BME280;40050;47.324;18.792;2024-02-23T00:01:51;989.98;;;12.42;49.36
54144;BME280;40050;47.324;18.792;2024-02-23T00:03:52;990.02;;;12.44;49.26
54144;BME280;40050;47.324;18.792;2024-02-23T00:05:53;990.06;;;12.55;49.09
54144;BME280;40050;47.324;18.792;2024-02-23T00:07:54;989.96;;;12.59;49.13
54144;BME280;40050;47.324;18.792;2024-02-23T00:09:55;989.95;;;12.64;49.02
54144;BME280;40050;47.324;18.792;2024-02-23T00:11:56;990.01;;;12.59;49.06
54144;BME280;40050;47.324;18.792;2024-02-23T00:13:59;990.04;;;12.75;48.63
54144;BME280;40050;47.324;18.792;2024-02-23T00:16:00;990.10;;;12.76;48.65
54144;BME280;40050;47.324;18.792;2024-02-23T00:18:01;990.06;;;12.65;49.09
54144;BME280;40050;47.324;18.792;2024-02-23T00:20:02;990.08;;;12.71;48.84
54144;BME280;40050;47.324;18.792;2024-02-23T00:22:03;990.04;;;12.60;49.14
54144;BME280;40050;47.324;18.792;2024-02-23T00:24:06;990.09;;;12.68;49.03
54144;BME280;40050;47.324;18.792;2024-02-23T00:26:07;990.05;;;12.63;49.21
54144;BME280;40050;47.324;18.792;2024-02-23T00:28:08;990.09;;;12.62;49.84
54144;BME280;40050;47.324;18.792;2024-02-23T00:30:09;990.04;;;12.68;49.87
54144;BME280;40050;47.324;18.792;2024-02-23T00:32:10;989.97;;;12.70;50.14
54144;BME280;40050;47.324;18.792;2024-02-23T00:34:11;989.97;;;12.56;50.81
54144;BME280;40050;47.324;18.792;2024-02-23T00:36:12;990.02;;;12.60;51.57
54144;BME280;40050;47.324;18.792;2024-02-23T00:38:13;990.02;;;12.48;52.35
54144;BME280;40050;47.324;18.792;2024-02-23T00:40:14;990.02;;;12.43;53.10
54144;BME280;40050;47.324;18.792;2024-02-23T00:42:15;990.09;;;12.45;53.50
54144;BME280;40050;47.324;18.792;2024-02-23T00:44:16;989.98;;;12.36;54.24
54144;BME280;40050;47.324;18.792;2024-02-23T00:46:17;990.03;;;12.27;54.06
54144;BME280;40050;47.324;18.792;2024-02-23T00:48:18;990.00;;;12.24;54.73
54144;BME280;40050;47.324;18.792;2024-02-23T00:50:20;989.99;;;12.13;55.11
54144;BME280;40050;47.324;18.792;2024-02-23T00:52:21;989.93;;;12.12;55.89
54144;BME280;40050;47.324;18.792;2024-02-23T00:54:22;989.88;;;12.12;56.06
54144;BME280;40050;47.324;18.792;2024-02-23T00:56:23;989.91;;;11.97;56.80
54144;BME280;40050;47.324;18.792;2024-02-23T00:58:24;989.89;;;12.08;56.52
54144;BME280;40050;47.324;18.792;2024-02-23T01:00:25;989.91;;;12.10;56.68
54144;BME280;40050;47.324;18.792;2024-02-23T01:02:26;989.92;;;12.06;56.66
54144;BME280;40050;47.324;18.792;2024-02-23T01:04:27;989.86;;;11.88;57.23
54144;BME280;40050;47.324;18.792;2024-02-23T01:06:28;989.90;;;11.91;57.48
54144;BME280;40050;47.324;18.792;2024-02-23T01:08:28;989.85;;;11.88;57.74
54144;BME280;40050;47.324;18.792;2024-02-23T01:10:29;989.80;;;11.89;57.91
54144;BME280;40050;47.324;18.792;2024-02-23T01:12:30;989.85;;;11.82;58.35
54144;BME280;40050;47.324;18.792;2024-02-23T01:14:31;989.88;;;11.85;58.29
54144;BME280;40050;47.324;18.792;2024-02-23T01:16:32;989.83;;;11.69;58.43
54144;BME280;40050;47.324;18.792;2024-02-23T01:18:33;989.89;;;11.68;58.31
54144;BME280;40050;47.324;18.792;2024-02-23T01:20:34;989.86;;;11.69;58.80
54144;BME280;40050;47.324;18.792;2024-02-23T01:22:35;989.87;;;11.65;59.02
54144;BME280;40050;47.324;18.792;2024-02-23T01:24:36;989.73;;;11.56;59.05
54144;BME280;40050;47.324;18.792;2024-02-23T01:26:37;989.83;;;11.69;59.40
54144;BME280;40050;47.324;18.792;2024-02-23T01:28:38;989.73;;;11.61;59.40
54144;BME280;40050;47.324;18.792;2024-02-23T01:30:39;989.67;;;11.61;59.74
54144;BME280;40050;47.324;18.792;2024-02-23T01:32:40;989.70;;;11.57;60.01
54144;BME280;40050;47.324;18.792;2024-02-23T01:34:40;989.68;;;11.55;60.43
54144;BME280;40050;47.324;18.792;2024-02-23T01:36:41;989.61;;;11.57;60.59
54144;BME280;40050;47.324;18.792;2024-02-23T01:38:42;989.57;;;11.46;61.03
54144;BME280;40050;47.324;18.792;2024-02-23T01:40:43;989.47;;;11.37;61.76
54144;BME280;40050;47.324;18.792;2024-02-23T01:42:44;989.51;;;11.32;62.24
54144;BME280;40050;47.324;18.792;2024-02-23T01:44:45;989.50;;;11.43;61.96
54144;BME280;40050;47.324;18.792;2024-02-23T01:46:46;989.51;;;11.26;62.92
54144;BME280;40050;47.324;18.792;2024-02-23T01:48:48;989.40;;;11.24;63.32
54144;BME280;40050;47.324;18.792;2024-02-23T01:50:49;989.44;;;11.12;64.02
54144;BME280;40050;47.324;18.792;2024-02-23T01:52:50;989.46;;;11.06;64.25
54144;BME280;40050;47.324;18.792;2024-02-23T01:54:51;989.45;;;11.07;64.77
54144;BME280;40050;47.324;18.792;2024-02-23T01:56:52;989.45;;;11.19;64.74
54144;BME280;40050;47.324;18.792;2024-02-23T01:58:53;989.39;;;11.16;64.82
54144;BME280;40050;47.324;18.792;2024-02-23T02:00:55;989.39;;;11.15;65.08
54144;BME280;40050;47.324;18.792;2024-02-23T02:02:56;989.39;;;11.02;65.57
54144;BME280;40050;47.324;18.792;2024-02-23T02:04:57;989.36;;;10.98;65.65
54144;BME280;40050;47.324;18.792;2024-02-23T02:06:58;989.44;;;11.04;65.24
54144;BME280;40050;47.324;18.792;2024-02-23T02:09:00;989.37;;;11.08;65.00
54144;BME280;40050;47.324;18.792;2024-02-23T02:11:01;989.31;;;11.06;65.03
54144;BME280;40050;47.324;18.792;2024-02-23T02:13:05;989.26;;;11.00;64.86
54144;BME280;40050;47.324;18.792;2024-02-23T02:15:06;989.28;;;11.02;64.34
54144;BME280;40050;47.324;18.792;2024-02-23T02:17:07;989.28;;;11.14;63.98
54144;BME280;40050;47.324;18.792;2024-02-23T02:19:08;989.25;;;11.17;63.40
54144;BME280;40050;47.324;18.792;2024-02-23T02:21:09;989.22;;;11.25;63.18
54144;BME280;40050;47.324;18.792;2024-02-23T02:23:10;989.22;;;11.16;63.48
54144;BME280;40050;47.324;18.792;2024-02-23T02:25:13;989.31;;;11.26;63.08
54144;BME280;40050;47.324;18.792;2024-02-23T02:27:14;989.29;;;11.27;63.37
54144;BME280;40050;47.324;18.792;2024-02-23T02:29:15;989.29;;;11.33;63.52
54144;BME280;40050;47.324;18.792;2024-02-23T02:31:16;989.26;;;11.34;63.73
54144;BME280;40050;47.324;18.792;2024-02-23T02:33:17;989.29;;;11.29;63.95
54144;BME280;40050;47.324;18.792;2024-02-23T02:35:18;989.32;;;11.33;63.91
54144;BME280;40050;47.324;18.792;2024-02-23T02:37:19;989.28;;;11.22;64.13
54144;BME280;40050;47.324;18.792;2024-02-23T02:39:20;989.30;;;11.18;64.79
54144;BME280;40050;47.324;18.792;2024-02-23T02:41:22;989.28;;;11.15;65.04
54144;BME280;40050;47.324;18.792;2024-02-23T02:43:24;989.31;;;11.14;65.06
54144;BME280;40050;47.324;18.792;2024-02-23T02:45:25;989.35;;;11.09;65.52
54144;BME280;40050;47.324;18.792;2024-02-23T02:47:26;989.36;;;11.11;65.35
54144;BME280;40050;47.324;18.792;2024-02-23T02:49:27;989.34;;;11.13;65.69
54144;BME280;40050;47.324;18.792;2024-02-23T02:51:28;989.37;;;10.99;66.06
54144;BME280;40050;47.324;18.792;2024-02-23T02:53:29;989.32;;;11.01;66.56
54144;BME280;40050;47.324;18.792;2024-02-23T02:55:30;989.29;;;11.12;66.37
54144;BME280;40050;47.324;18.792;2024-02-23T02:57:31;989.36;;;10.96;66.54
54144;BME280;40050;47.324;18.792;2024-02-23T02:59:34;989.37;;;11.03;66.58
54144;BME280;40050;47.324;18.792;2024-02-23T03:01:35;989.40;;;11.03;67.09
54144;BME280;40050;47.324;18.792;2024-02-23T03:03:36;989.39;;;10.92;67.08
54144;BME280;40050;47.324;18.792;2024-02-23T03:05:49;989.44;;;10.93;67.07
54144;BME280;40050;47.324;18.792;2024-02-23T03:07:50;989.45;;;10.94;67.27
54144;BME280;40050;47.324;18.792;2024-02-23T03:10:03;989.45;;;10.99;67.21
54144;BME280;40050;47.324;18.792;2024-02-23T03:12:05;989.42;;;11.01;66.97
54144;BME280;40050;47.324;18.792;2024-02-23T03:14:06;989.42;;;10.95;67.21
54144;BME280;40050;47.324;18.792;2024-02-23T03:16:14;989.44;;;10.82;67.71
54144;BME280;40050;47.324;18.792;2024-02-23T03:18:14;989.45;;;10.85;67.64
54144;BME280;40050;47.324;18.792;2024-02-23T03:20:15;989.46;;;10.97;67.02
54144;BME280;40050;47.324;18.792;2024-02-23T03:22:16;989.53;;;10.88;67.44
54144;BME280;40050;47.324;18.792;2024-02-23T03:24:17;989.48;;;10.97;67.54
54144;BME280;40050;47.324;18.792;2024-02-23T03:26:18;989.49;;;11.02;67.16
54144;BME280;40050;47.324;18.792;2024-02-23T03:28:19;989.34;;;11.01;66.78
54144;BME280;40050;47.324;18.792;2024-02-23T03:30:20;989.46;;;11.11;66.66
54144;BME280;40050;47.324;18.792;2024-02-23T03:32:21;989.54;;;11.10;67.18
54144;BME280;40050;47.324;18.792;2024-02-23T03:34:22;989.48;;;11.10;66.76
54144;BME280;40050;47.324;18.792;2024-02-23T03:36:26;989.47;;;10.96;67.14
54144;BME280;40050;47.324;18.792;2024-02-23T03:38:27;989.47;;;11.00;67.15
54144;BME280;40050;47.324;18.792;2024-02-23T03:40:37;989.46;;;11.13;66.28
54144;BME280;40050;47.324;18.792;2024-02-23T03:42:38;989.40;;;11.12;66.37
54144;BME280;40050;47.324;18.792;2024-02-23T03:44:39;989.41;;;11.10;66.44
54144;BME280;40050;47.324;18.792;2024-02-23T03:46:40;989.44;;;11.13;66.39
54144;BME280;40050;47.324;18.792;2024-02-23T03:48:42;989.47;;;11.24;65.80
54144;BME280;40050;47.324;18.792;2024-02-23T03:51:09;989.40;;;11.33;65.58
54144;BME280;40050;47.324;18.792;2024-02-23T03:53:10;989.45;;;11.29;65.74
54144;BME280;40050;47.324;18.792;2024-02-23T03:55:11;989.43;;;11.35;65.49
54144;BME280;40050;47.324;18.792;2024-02-23T03:57:12;989.53;;;11.44;64.91
54144;BME280;40050;47.324;18.792;2024-02-23T03:59:13;989.53;;;11.44;65.44
54144;BME280;40050;47.324;18.792;2024-02-23T04:01:14;989.53;;;11.49;65.09
54144;BME280;40050;47.324;18.792;2024-02-23T04:03:15;989.58;;;11.56;64.81
54144;BME280;40050;47.324;18.792;2024-02-23T04:05:16;989.52;;;11.46;65.14
54144;BME280;40050;47.324;18.792;2024-02-23T04:07:17;989.59;;;11.44;64.78
54144;BME280;40050;47.324;18.792;2024-02-23T04:09:19;989.69;;;11.48;65.18
54144;BME280;40050;47.324;18.792;2024-02-23T04:11:20;989.65;;;11.63;64.98
54144;BME280;40050;47.324;18.792;2024-02-23T04:13:21;989.62;;;11.50;65.35
54144;BME280;40050;47.324;18.792;2024-02-23T04:15:22;989.64;;;11.52;64.85
54144;BME280;40050;47.324;18.792;2024-02-23T04:17:23;989.64;;;11.46;65.44
54144;BME280;40050;47.324;18.792;2024-02-23T04:21:56;989.63;;;11.56;65.30
54144;BME280;40050;47.324;18.792;2024-02-23T04:23:58;989.63;;;11.40;65.73
54144;BME280;40050;47.324;18.792;2024-02-23T04:25:59;989.62;;;11.50;65.82
54144;BME280;40050;47.324;18.792;2024-02-23T04:28:00;989.63;;;11.56;64.95
54144;BME280;40050;47.324;18.792;2024-02-23T04:30:01;989.62;;;11.54;65.10
54144;BME280;40050;47.324;18.792;2024-02-23T04:32:02;989.65;;;11.64;64.44
54144;BME280;40050;47.324;18.792;2024-02-23T04:34:03;989.64;;;11.74;64.31
54144;BME280;40050;47.324;18.792;2024-02-23T04:36:04;989.69;;;11.72;64.10
54144;BME280;40050;47.324;18.792;2024-02-23T04:38:05;989.66;;;11.71;64.38
54144;BME280;40050;47.324;18.792;2024-02-23T04:40:06;989.70;;;11.69;63.85
54144;BME280;40050;47.324;18.792;2024-02-23T04:42:09;989.71;;;11.74;63.17
54144;BME280;40050;47.324;18.792;2024-02-23T04:44:10;989.73;;;11.62;63.38
54144;BME280;40050;47.324;18.792;2024-02-23T04:46:11;989.76;;;11.64;63.62
54144;BME280;40050;47.324;18.792;2024-02-23T04:48:12;989.68;;;11.70;63.55
54144;BME280;40050;47.324;18.792;2024-02-23T04:50:13;989.72;;;11.74;63.05
54144;BME280;40050;47.324;18.792;2024-02-23T04:52:14;989.73;;;11.72;63.00
54144;BME280;40050;47.324;18.792;2024-02-23T04:54:15;989.71;;;11.73;62.75
54144;BME280;40050;47.324;18.792;2024-02-23T04:56:17;989.70;;;11.78;62.83
54144;BME280;40050;47.324;18.792;2024-02-23T05:00:19;989.78;;;11.86;62.43
54144;BME280;40050;47.324;18.792;2024-02-23T05:02:20;989.77;;;11.88;61.83
54144;BME280;40050;47.324;18.792;2024-02-23T05:04:21;989.72;;;11.93;61.67
54144;BME280;40050;47.324;18.792;2024-02-23T05:06:22;989.84;;;11.97;61.24
54144;BME280;40050;47.324;18.792;2024-02-23T05:08:23;989.80;;;11.89;61.29
54144;BME280;40050;47.324;18.792;2024-02-23T05:10:24;989.86;;;12.01;61.04
54144;BME280;40050;47.324;18.792;2024-02-23T05:12:25;989.82;;;11.89;60.66
54144;BME280;40050;47.324;18.792;2024-02-23T05:14:26;989.86;;;11.86;61.17
54144;BME280;40050;47.324;18.792;2024-02-23T05:18:45;989.93;;;11.72;61.39
54144;BME280;40050;47.324;18.792;2024-02-23T05:20:46;989.97;;;11.78;61.22
54144;BME280;40050;47.324;18.792;2024-02-23T05:22:47;989.97;;;11.66;61.26
54144;BME280;40050;47.324;18.792;2024-02-23T05:24:49;990.01;;;11.72;60.94
54144;BME280;40050;47.324;18.792;2024-02-23T05:26:50;990.02;;;11.75;60.79
54144;BME280;40050;47.324;18.792;2024-02-23T05:28:51;990.08;;;11.83;60.80
54144;BME280;40050;47.324;18.792;2024-02-23T05:30:52;990.09;;;11.84;60.86
54144;BME280;40050;47.324;18.792;2024-02-23T05:32:53;990.11;;;11.78;61.37
54144;BME280;40050;47.324;18.792;2024-02-23T05:34:54;990.15;;;11.72;61.46
54144;BME280;40050;47.324;18.792;2024-02-23T05:36:55;990.17;;;11.59;62.28
54144;BME280;40050;47.324;18.792;2024-02-23T05:38:56;990.18;;;11.61;62.20
54144;BME280;40050;47.324;18.792;2024-02-23T05:40:56;990.23;;;11.57;62.38
54144;BME280;40050;47.324;18.792;2024-02-23T05:42:57;990.26;;;11.42;62.90
54144;BME280;40050;47.324;18.792;2024-02-23T05:44:58;990.27;;;11.47;63.16
54144;BME280;40050;47.324;18.792;2024-02-23T05:46:59;990.29;;;11.50;63.06
54144;BME280;40050;47.324;18.792;2024-02-23T05:49:00;990.39;;;11.48;63.21
54144;BME280;40050;47.324;18.792;2024-02-23T05:51:01;990.45;;;11.52;63.67
54144;BME280;40050;47.324;18.792;2024-02-23T05:53:02;990.45;;;11.39;64.69
54144;BME280;40050;47.324;18.792;2024-02-23T05:55:03;990.49;;;11.37;64.92
54144;BME280;40050;47.324;18.792;2024-02-23T05:57:04;990.53;;;11.42;65.34
54144;BME280;40050;47.324;18.792;2024-02-23T05:59:05;990.60;;;11.40;65.45
54144;BME280;40050;47.324;18.792;2024-02-23T06:01:06;990.63;;;11.35;65.72
54144;BME280;40050;47.324;18.792;2024-02-23T06:03:07;990.62;;;11.33;66.06
54144;BME280;40050;47.324;18.792;2024-02-23T06:05:08;990.63;;;11.31;66.25
54144;BME280;40050;47.324;18.792;2024-02-23T06:07:09;990.68;;;11.13;67.28
54144;BME280;40050;47.324;18.792;2024-02-23T06:09:10;990.73;;;11.08;67.51
54144;BME280;40050;47.324;18.792;2024-02-23T06:11:11;990.72;;;11.18;67.48
54144;BME280;40050;47.324;18.792;2024-02-23T06:13:12;990.80;;;11.21;67.93
54144;BME280;40050;47.324;18.792;2024-02-23T06:15:13;990.83;;;11.15;67.94
54144;BME280;40050;47.324;18.792;2024-02-23T06:17:13;990.89;;;11.14;68.38
54144;BME280;40050;47.324;18.792;2024-02-23T06:19:15;990.87;;;11.02;68.55
54144;BME280;40050;47.324;18.792;2024-02-23T06:21:16;990.92;;;11.12;68.35
54144;BME280;40050;47.324;18.792;2024-02-23T06:23:17;990.94;;;11.10;68.77
54144;BME280;40050;47.324;18.792;2024-02-23T06:25:18;990.92;;;11.06;68.88
54144;BME280;40050;47.324;18.792;2024-02-23T06:27:19;990.98;;;11.17;68.70
54144;BME280;40050;47.324;18.792;2024-02-23T06:29:20;991.01;;;11.31;68.21
54144;BME280;40050;47.324;18.792;2024-02-23T06:31:21;991.03;;;11.29;68.52
54144;BME280;40050;47.324;18.792;2024-02-23T06:33:23;991.10;;;11.32;68.67
54144;BME280;40050;47.324;18.792;2024-02-23T06:35:24;991.05;;;11.23;68.98
54144;BME280;40050;47.324;18.792;2024-02-23T06:37:25;991.03;;;11.32;68.93
54144;BME280;40050;47.324;18.792;2024-02-23T06:39:26;991.06;;;11.13;69.30
54144;BME280;40050;47.324;18.792;2024-02-23T06:41:27;991.09;;;11.19;69.54
54144;BME280;40050;47.324;18.792;2024-02-23T06:43:28;991.13;;;11.26;69.25
54144;BME280;40050;47.324;18.792;2024-02-23T06:45:29;991.12;;;11.16;69.66
54144;BME280;40050;47.324;18.792;2024-02-23T06:47:29;991.10;;;11.25;69.40
54144;BME280;40050;47.324;18.792;2024-02-23T06:49:30;991.17;;;11.26;69.53
54144;BME280;40050;47.324;18.792;2024-02-23T06:51:31;991.22;;;11.31;69.47
54144;BME280;40050;47.324;18.792;2024-02-23T06:53:32;991.23;;;11.28;69.72
54144;BME280;40050;47.324;18.792;2024-02-23T06:55:36;991.26;;;11.16;70.18
54144;BME280;40050;47.324;18.792;2024-02-23T06:57:37;991.24;;;11.17;70.36
54144;BME280;40050;47.324;18.792;2024-02-23T06:59:38;991.21;;;11.09;70.57
54144;BME280;40050;47.324;18.792;2024-02-23T07:01:51;991.26;;;11.20;70.51
54144;BME280;40050;47.324;18.792;2024-02-23T07:03:52;991.31;;;11.11;71.02
54144;BME280;40050;47.324;18.792;2024-02-23T07:05:53;991.29;;;11.29;70.47
54144;BME280;40050;47.324;18.792;2024-02-23T07:07:54;991.36;;;11.26;70.68
54144;BME280;40050;47.324;18.792;2024-02-23T07:09:55;991.30;;;11.29;70.37
54144;BME280;40050;47.324;18.792;2024-02-23T07:11:56;991.38;;;11.30;70.43
54144;BME280;40050;47.324;18.792;2024-02-23T07:13:57;991.33;;;11.38;70.01
54144;BME280;40050;47.324;18.792;2024-02-23T07:15:58;991.39;;;11.44;70.00
54144;BME280;40050;47.324;18.792;2024-02-23T07:17:59;991.39;;;11.44;69.88
54144;BME280;40050;47.324;18.792;2024-02-23T07:20:00;991.47;;;11.48;69.97
54144;BME280;40050;47.324;18.792;2024-02-23T07:22:01;991.49;;;11.53;69.97
54144;BME280;40050;47.324;18.792;2024-02-23T07:24:02;991.55;;;11.55;69.82
54144;BME280;40050;47.324;18.792;2024-02-23T07:26:03;991.55;;;11.61;69.41
54144;BME280;40050;47.324;18.792;2024-02-23T07:28:04;991.56;;;11.64;69.41
54144;BME280;40050;47.324;18.792;2024-02-23T07:30:05;991.61;;;11.67;69.21
54144;BME280;40050;47.324;18.792;2024-02-23T07:32:06;991.57;;;11.64;69.38
54144;BME280;40050;47.324;18.792;2024-02-23T07:34:07;991.60;;;11.66;69.45
54144;BME280;40050;47.324;18.792;2024-02-23T07:36:13;991.61;;;11.68;69.34
54144;BME280;40050;47.324;18.792;2024-02-23T07:38:14;991.67;;;11.70;69.36
54144;BME280;40050;47.324;18.792;2024-02-23T07:40:15;991.65;;;11.69;69.42
54144;BME280;40050;47.324;18.792;2024-02-23T07:42:16;991.68;;;11.73;69.49
54144;BME280;40050;47.324;18.792;2024-02-23T07:44:17;991.69;;;11.65;69.76
54144;BME280;40050;47.324;18.792;2024-02-23T07:46:18;991.71;;;11.68;69.87
54144;BME280;40050;47.324;18.792;2024-02-23T07:48:19;991.73;;;11.74;69.82
54144;BME280;40050;47.324;18.792;2024-02-23T07:50:20;991.74;;;11.76;69.72
54144;BME280;40050;47.324;18.792;2024-02-23T07:52:21;991.76;;;11.73;69.77
54144;BME280;40050;47.324;18.792;2024-02-23T07:54:22;991.80;;;11.80;69.67
54144;BME280;40050;47.324;18.792;2024-02-23T07:56:23;991.78;;;11.78;69.75
54144;BME280;40050;47.324;18.792;2024-02-23T07:58:24;991.84;;;11.79;69.66
54144;BME280;40050;47.324;18.792;2024-02-23T08:00:25;991.81;;;11.82;69.90
54144;BME280;40050;47.324;18.792;2024-02-23T08:02:26;991.73;;;11.79;69.80
54144;BME280;40050;47.324;18.792;2024-02-23T08:04:26;991.83;;;11.86;69.64
54144;BME280;40050;47.324;18.792;2024-02-23T08:06:27;991.79;;;11.84;69.62
54144;BME280;40050;47.324;18.792;2024-02-23T08:08:28;991.81;;;11.86;69.58
54144;BME280;40050;47.324;18.792;2024-02-23T08:10:29;991.79;;;11.87;69.68
54144;BME280;40050;47.324;18.792;2024-02-23T08:12:30;991.87;;;11.88;69.82
54144;BME280;40050;47.324;18.792;2024-02-23T08:14:31;991.87;;;11.92;69.66
54144;BME280;40050;47.324;18.792;2024-02-23T08:16:32;991.80;;;11.93;69.74
54144;BME280;40050;47.324;18.792;2024-02-23T08:18:33;991.85;;;11.98;70.03
54144;BME280;40050;47.324;18.792;2024-02-23T08:20:34;991.86;;;12.00;69.92
54144;BME280;40050;47.324;18.792;2024-02-23T08:22:35;991.87;;;12.06;69.13
54144;BME280;40050;47.324;18.792;2024-02-23T08:24:36;991.92;;;12.09;69.39
54144;BME280;40050;47.324;18.792;2024-02-23T08:33:03;992.05;;;12.10;69.79
54144;BME280;40050;47.324;18.792;2024-02-23T08:37:30;992.04;;;12.13;69.91
54144;BME280;40050;47.324;18.792;2024-02-23T08:39:31;992.10;;;12.18;69.92
54144;BME280;40050;47.324;18.792;2024-02-23T08:41:32;992.11;;;12.24;69.62
54144;BME280;40050;47.324;18.792;2024-02-23T08:43:33;992.13;;;12.26;69.76
54144;BME280;40050;47.324;18.792;2024-02-23T08:45:34;992.06;;;12.36;69.33
54144;BME280;40050;47.324;18.792;2024-02-23T08:47:35;992.07;;;12.35;69.01
54144;BME280;40050;47.324;18.792;2024-02-23T08:49:36;992.07;;;12.37;68.84
54144;BME280;40050;47.324;18.792;2024-02-23T08:51:37;992.15;;;12.41;68.75
54144;BME280;40050;47.324;18.792;2024-02-23T08:53:38;992.19;;;12.46;68.19
54144;BME280;40050;47.324;18.792;2024-02-23T08:55:39;992.14;;;12.44;68.34
54144;BME280;40050;47.324;18.792;2024-02-23T08:57:40;992.14;;;12.47;68.30
54144;BME280;40050;47.324;18.792;2024-02-23T08:59:41;992.18;;;12.44;68.56
54144;BME280;40050;47.324;18.792;2024-02-23T09:01:42;992.20;;;12.51;68.57
54144;BME280;40050;47.324;18.792;2024-02-23T09:03:43;992.20;;;12.58;68.04
54144;BME280;40050;47.324;18.792;2024-02-23T09:05:44;992.20;;;12.52;68.32
54144;BME280;40050;47.324;18.792;2024-02-23T09:09:58;992.23;;;12.57;68.21
54144;BME280;40050;47.324;18.792;2024-02-23T09:11:59;992.24;;;12.60;68.16
54144;BME280;40050;47.324;18.792;2024-02-23T09:14:01;992.26;;;12.60;67.79
54144;BME280;40050;47.324;18.792;2024-02-23T09:16:11;992.26;;;12.64;67.81
54144;BME280;40050;47.324;18.792;2024-02-23T09:18:12;992.28;;;12.64;67.45
54144;BME280;40050;47.324;18.792;2024-02-23T09:20:13;992.24;;;12.64;67.37
54144;BME280;40050;47.324;18.792;2024-02-23T09:22:14;992.21;;;12.60;67.68
54144;BME280;40050;47.324;18.792;2024-02-23T09:24:15;992.21;;;12.65;67.19
54144;BME280;40050;47.324;18.792;2024-02-23T09:26:16;992.20;;;12.72;66.67
54144;BME280;40050;47.324;18.792;2024-02-23T09:28:17;992.28;;;12.70;66.81
54144;BME280;40050;47.324;18.792;2024-02-23T09:30:18;992.30;;;12.71;66.91
54144;BME280;40050;47.324;18.792;2024-02-23T09:32:19;992.28;;;12.72;66.37
54144;BME280;40050;47.324;18.792;2024-02-23T09:34:20;992.35;;;12.69;66.49
54144;BME280;40050;47.324;18.792;2024-02-23T09:36:21;992.32;;;12.66;66.35
54144;BME280;40050;47.324;18.792;2024-02-23T09:38:22;992.29;;;12.66;66.38
54144;BME280;40050;47.324;18.792;2024-02-23T09:40:23;992.36;;;12.67;65.86
54144;BME280;40050;47.324;18.792;2024-02-23T09:42:24;992.37;;;12.73;65.54
54144;BME280;40050;47.324;18.792;2024-02-23T09:44:31;992.37;;;12.70;65.74
54144;BME280;40050;47.324;18.792;2024-02-23T09:46:33;992.37;;;12.77;65.38
54144;BME280;40050;47.324;18.792;2024-02-23T09:48:34;992.37;;;12.71;64.57
54144;BME280;40050;47.324;18.792;2024-02-23T09:50:35;992.37;;;12.70;64.92
54144;BME280;40050;47.324;18.792;2024-02-23T09:52:38;992.40;;;12.71;64.71
54144;BME280;40050;47.324;18.792;2024-02-23T09:54:39;992.41;;;12.68;64.60
54144;BME280;40050;47.324;18.792;2024-02-23T09:56:40;992.30;;;12.66;64.74
54144;BME280;40050;47.324;18.792;2024-02-23T09:58:41;992.39;;;12.66;65.01
54144;BME280;40050;47.324;18.792;2024-02-23T10:00:43;992.42;;;12.72;64.75
54144;BME280;40050;47.324;18.792;2024-02-23T10:02:47;992.35;;;12.69;64.76
54144;BME280;40050;47.324;18.792;2024-02-23T10:04:48;992.30;;;12.62;64.70
54144;BME280;40050;47.324;18.792;2024-02-23T10:06:50;992.40;;;12.66;64.72
54144;BME280;40050;47.324;18.792;2024-02-23T10:09:08;992.49;;;12.74;64.77
54144;BME280;40050;47.324;18.792;2024-02-23T10:11:18;992.47;;;12.78;64.58
54144;BME280;40050;47.324;18.792;2024-02-23T10:13:20;992.43;;;12.75;64.63
54144;BME280;40050;47.324;18.792;2024-02-23T10:15:21;992.36;;;12.72;64.78
54144;BME280;40050;47.324;18.792;2024-02-23T10:32:18;992.44;;;12.71;65.18
54144;BME280;40050;47.324;18.792;2024-02-23T10:34:20;992.44;;;12.61;65.07
54144;BME280;40050;47.324;18.792;2024-02-23T10:36:21;992.39;;;12.74;64.78
54144;BME280;40050;47.324;18.792;2024-02-23T10:38:22;992.38;;;12.82;64.21
54144;BME280;40050;47.324;18.792;2024-02-23T10:40:33;992.41;;;12.95;64.07
54144;BME280;40050;47.324;18.792;2024-02-23T10:44:40;992.45;;;13.00;63.80
54144;BME280;40050;47.324;18.792;2024-02-23T10:46:42;992.43;;;13.05;63.60
54144;BME280;40050;47.324;18.792;2024-02-23T10:48:43;992.40;;;13.13;63.46
54144;BME280;40050;47.324;18.792;2024-02-23T10:50:44;992.43;;;13.18;63.39
54144;BME280;40050;47.324;18.792;2024-02-23T10:52:45;992.39;;;13.20;62.93
54144;BME280;40050;47.324;18.792;2024-02-23T10:54:46;992.41;;;13.23;62.75
54144;BME280;40050;47.324;18.792;2024-02-23T10:56:53;992.41;;;13.25;62.81
54144;BME280;40050;47.324;18.792;2024-02-23T10:58:54;992.39;;;13.16;62.86
54144;BME280;40050;47.324;18.792;2024-02-23T11:01:07;992.44;;;13.25;63.02
54144;BME280;40050;47.324;18.792;2024-02-23T11:03:08;992.38;;;13.19;62.73
54144;BME280;40050;47.324;18.792;2024-02-23T11:05:09;992.40;;;13.20;62.63
54144;BME280;40050;47.324;18.792;2024-02-23T11:07:13;992.39;;;13.21;62.77
54144;BME280;40050;47.324;18.792;2024-02-23T11:09:14;992.37;;;13.08;63.13
54144;BME280;40050;47.324;18.792;2024-02-23T11:11:16;992.33;;;13.13;62.82
54144;BME280;40050;47.324;18.792;2024-02-23T11:13:17;992.34;;;13.17;62.54
54144;BME280;40050;47.324;18.792;2024-02-23T11:15:25;992.36;;;13.17;62.39
54144;BME280;40050;47.324;18.792;2024-02-23T11:17:26;992.36;;;13.10;62.56
54144;BME280;40050;47.324;18.792;2024-02-23T11:19:34;992.41;;;13.18;62.62
54144;BME280;40050;47.324;18.792;2024-02-23T11:21:35;992.37;;;13.21;62.79
54144;BME280;40050;47.324;18.792;2024-02-23T11:23:43;992.36;;;13.24;62.52
54144;BME280;40050;47.324;18.792;2024-02-23T11:25:58;992.38;;;13.23;62.38
54144;BME280;40050;47.324;18.792;2024-02-23T11:27:57;992.38;;;13.27;62.61